Time;durP1;ratioP1;P1;durP2;ratioP2;P2;SDS_P1;SDS_P2;PMS_P1;PMS_P2;Temp;Humidity;BMP_temperature;BMP_pressure;BME280_temperature;BME280_humidity;BME280_pressure;Samples;Min_cycle;Max_cycle;Signal;HPM_P1;HPM_P2
2023/06/05 00:01:34;;;;;;;5.13;3.93;;;;;;;13.18;92.26;98075.94;6064072;29;20247;-48
2023/06/05 00:04:36;;;;;;;6.07;5.07;;;;;;;13.16;92.08;98074.59;6064983;29;20237;-49
2023/06/05 00:07:39;;;;;;;4.80;4.40;;;;;;;13.09;92.27;98058.72;6063629;29;20247;-50
2023/06/05 00:10:41;;;;;;;4.97;4.47;;;;;;;13.07;92.54;98050.13;6064157;29;20320;-50
2023/06/05 00:13:45;;;;;;;6.67;5.13;;;;;;;12.95;92.64;98035.25;6078148;29;20243;-50
2023/06/05 00:16:51;;;;;;;7.83;4.77;;;;;;;13.01;92.81;98053.00;6067133;29;20247;-53
2023/06/05 00:19:54;;;;;;;6.77;5.47;;;;;;;12.93;92.82;98056.91;6064408;29;20241;-51
2023/06/05 00:22:56;;;;;;;5.43;4.40;;;;;;;12.62;93.22;98018.25;6063385;29;20243;-50
2023/06/05 00:25:58;;;;;;;5.37;4.40;;;;;;;12.78;92.83;98048.69;6064173;29;20240;-49
2023/06/05 00:29:01;;;;;;;6.00;4.97;;;;;;;12.80;93.51;98054.56;6068641;29;20232;-48
2023/06/05 00:32:04;;;;;;;5.43;4.93;;;;;;;12.79;93.21;98063.66;6066492;29;20265;-48
2023/06/05 00:38:23;;;;;;;7.23;5.00;;;;;;;12.64;93.51;98049.03;6052585;29;20263;-50
2023/06/05 00:41:25;;;;;;;5.57;5.07;;;;;;;12.73;93.34;98064.66;6060180;29;20251;-50
2023/06/05 00:44:28;;;;;;;7.03;5.50;;;;;;;12.73;93.68;98065.47;6048864;29;20338;-48
2023/06/05 00:47:30;;;;;;;5.70;5.10;;;;;;;12.27;93.82;97995.31;6051592;29;20327;-48
2023/06/05 00:50:34;;;;;;;7.50;5.17;;;;;;;12.69;93.59;98061.66;6055514;29;20251;-51
2023/06/05 00:53:39;;;;;;;8.03;5.30;;;;;;;12.67;93.68;98068.31;6051913;29;20233;-48
2023/06/05 00:56:46;;;;;;;5.80;5.17;;;;;;;12.37;94.32;98026.72;6053608;29;20251;-48
2023/06/05 00:59:50;;;;;;;5.30;4.17;;;;;;;12.62;94.16;98061.84;6065519;29;20233;-51
2023/06/05 01:02:53;;;;;;;5.67;4.63;;;;;;;12.63;94.48;98058.09;6053024;29;20228;-52
2023/06/05 01:06:02;;;;;;;5.13;4.73;;;;;;;12.64;94.62;98059.72;6052025;29;20711;-52
2023/06/05 01:09:05;;;;;;;5.57;4.40;;;;;;;12.14;93.99;97977.75;6051298;29;20234;-49
2023/06/05 01:12:24;;;;;;;5.10;4.60;;;;;;;12.63;94.45;98052.75;6057473;29;20225;-52
2023/06/05 01:15:29;;;;;;;5.27;4.77;;;;;;;12.63;94.18;98052.75;6052477;29;20237;-51
2023/06/05 01:18:32;;;;;;;5.50;5.00;;;;;;;12.43;94.47;98015.06;6053970;29;20444;-52
2023/06/05 01:21:35;;;;;;;7.50;5.20;;;;;;;12.62;94.37;98043.13;6063886;29;20237;-50
2023/06/05 01:24:40;;;;;;;7.27;5.10;;;;;;;12.62;94.25;98053.00;6052840;29;20228;-52
2023/06/05 01:27:59;;;;;;;5.57;4.83;;;;;;;12.35;94.38;98010.91;6052972;29;20241;-52
2023/06/05 01:31:22;;;;;;;4.80;4.33;;;;;;;12.58;94.40;98052.69;6054629;29;20240;-50
2023/06/05 01:34:26;;;;;;;5.77;5.20;;;;;;;12.39;94.46;98024.59;6050421;29;20809;-53
2023/06/05 01:37:36;;;;;;;8.40;4.70;;;;;;;12.59;94.63;98056.97;6065541;29;20614;-51
2023/06/05 01:40:40;;;;;;;5.93;5.33;;;;;;;12.44;94.50;98027.34;6049883;29;20244;-49
2023/06/05 01:43:45;;;;;;;6.23;4.77;;;;;;;12.58;94.52;98054.56;6055361;29;20738;-50
2023/06/05 01:46:49;;;;;;;4.97;4.30;;;;;;;12.64;94.75;98058.91;6051184;29;20558;-50
2023/06/05 01:49:52;;;;;;;5.27;4.60;;;;;;;12.65;94.28;98055.19;6049144;29;20247;-48
2023/06/05 01:52:55;;;;;;;4.63;4.23;;;;;;;12.68;94.64;98054.69;6056035;29;20349;-51
2023/06/05 01:55:58;;;;;;;5.60;5.10;;;;;;;12.68;94.45;98054.69;6057990;29;20236;-52
2023/06/05 01:59:06;;;;;;;5.23;4.73;;;;;;;12.69;94.35;98055.50;6051512;29;20235;-49
2023/06/05 02:02:11;;;;;;;4.50;4.10;;;;;;;12.70;94.77;98049.09;6044152;29;20282;-52
2023/06/05 02:05:16;;;;;;;5.60;4.57;;;;;;;12.73;94.57;98052.09;6054365;29;20239;-52
2023/06/05 02:08:19;;;;;;;5.67;5.13;;;;;;;12.61;94.80;98028.16;6052941;29;20244;-53
2023/06/05 02:11:22;;;;;;;5.53;5.03;;;;;;;12.74;94.68;98037.66;6056190;29;20246;-50
2023/06/05 02:14:26;;;;;;;5.80;5.27;;;;;;;12.75;94.87;98046.50;6053742;29;20331;-50
2023/06/05 02:17:30;;;;;;;4.77;4.27;;;;;;;12.78;95.02;98051.34;6047151;29;20239;-51
2023/06/05 02:20:35;;;;;;;5.83;5.27;;;;;;;12.77;94.62;98047.88;6050431;29;20357;-52
2023/06/05 02:23:38;;;;;;;5.10;4.40;;;;;;;12.76;95.04;98045.44;6067761;29;20236;-48
2023/06/05 02:26:41;;;;;;;5.10;4.60;;;;;;;12.70;95.00;98038.41;6054509;29;20233;-49
2023/06/05 02:29:43;;;;;;;4.87;4.37;;;;;;;12.68;94.93;98027.16;6053078;29;20228;-49
2023/06/05 02:32:46;;;;;;;5.27;4.77;;;;;;;12.84;94.87;98053.03;6060823;29;20232;-48
2023/06/05 02:35:51;;;;;;;5.20;4.70;;;;;;;12.84;94.91;98037.81;6050568;29;20251;-51
2023/06/05 02:38:55;;;;;;;5.73;4.83;;;;;;;12.86;95.22;98048.28;6050229;29;20240;-51
2023/06/05 02:41:57;;;;;;;6.63;6.03;;;;;;;12.89;95.29;98047.75;6054978;29;20304;-52
2023/06/05 02:45:00;;;;;;;5.57;4.70;;;;;;;12.89;95.04;98043.22;6048406;29;20317;-52
2023/06/05 02:48:03;;;;;;;6.60;6.00;;;;;;;12.64;95.27;98008.13;6052920;29;20237;-52
2023/06/05 02:51:06;;;;;;;7.47;6.70;;;;;;;12.83;95.66;98028.16;6065334;29;20217;-51
2023/06/05 02:54:09;;;;;;;6.27;5.67;;;;;;;12.96;95.36;98036.91;6072271;29;20223;-53
2023/06/05 02:57:15;;;;;;;6.93;6.23;;;;;;;12.99;95.80;98045.22;6055402;29;20583;-49
2023/06/05 03:00:18;;;;;;;7.37;6.43;;;;;;;12.99;95.59;98039.06;6063175;29;20579;-52
2023/06/05 03:03:34;;;;;;;7.03;6.20;;;;;;;13.00;95.45;98036.13;6055175;29;20228;-50
2023/06/05 03:06:37;;;;;;;7.67;6.90;;;;;;;13.01;95.87;98044.97;6051752;29;20240;-52
2023/06/05 03:09:43;;;;;;;7.63;6.07;;;;;;;13.03;95.64;98037.50;6070737;29;20243;-52
2023/06/05 03:12:46;;;;;;;9.13;7.77;;;;;;;13.06;96.44;98032.47;6052397;29;20299;-51
2023/06/05 03:15:48;;;;;;;7.97;7.10;;;;;;;13.07;96.47;98035.97;6054882;29;20244;-50
2023/06/05 03:18:55;;;;;;;10.13;7.90;;;;;;;13.08;96.48;98037.56;6057739;29;20725;-50
2023/06/05 03:21:58;;;;;;;9.53;7.60;;;;;;;13.08;96.53;98022.31;6057591;29;20260;-50
2023/06/05 03:25:00;;;;;;;7.07;6.30;;;;;;;13.11;96.24;98026.38;6054843;29;20284;-52
2023/06/05 03:28:05;;;;;;;10.20;7.93;;;;;;;13.11;96.65;98026.38;6067792;29;20249;-52
2023/06/05 03:31:09;;;;;;;8.70;6.90;;;;;;;13.12;96.57;98026.13;6053222;29;20240;-49
2023/06/05 03:34:16;;;;;;;7.33;6.10;;;;;;;13.07;96.47;98009.22;6056261;29;20245;-52
2023/06/05 03:37:19;;;;;;;8.30;7.00;;;;;;;13.16;96.40;98015.75;6067954;29;20251;-52
2023/06/05 03:40:22;;;;;;;7.77;7.07;;;;;;;13.17;96.48;98018.16;6053971;29;20652;-51
2023/06/05 03:43:25;;;;;;;9.90;6.87;;;;;;;13.17;96.63;98026.19;6059583;29;20233;-52
2023/06/05 03:46:29;;;;;;;8.23;7.43;;;;;;;13.10;96.64;98006.84;6058712;29;20247;-52
2023/06/05 03:49:32;;;;;;;7.67;6.87;;;;;;;13.23;96.43;98026.28;6051340;29;20237;-49
2023/06/05 03:52:37;;;;;;;9.40;7.90;;;;;;;13.23;97.03;98027.06;6056138;29;20268;-49
2023/06/05 03:55:45;;;;;;;8.17;7.37;;;;;;;13.25;96.69;98016.13;6058976;29;20237;-51
2023/06/05 03:58:55;;;;;;;8.97;8.07;;;;;;;13.26;96.78;98023.91;6050868;29;20244;-53
2023/06/05 04:01:58;;;;;;;10.73;9.00;;;;;;;13.29;96.90;98025.25;6051350;29;20245;-49
2023/06/05 04:05:01;;;;;;;11.80;9.17;;;;;;;13.29;96.89;98026.06;6068788;29;20244;-51
2023/06/05 04:08:05;;;;;;;11.03;8.80;;;;;;;13.33;97.15;98029.06;6053457;29;20332;-51
2023/06/05 04:11:07;;;;;;;8.50;7.60;;;;;;;13.07;97.05;97990.50;6050050;29;20233;-50
2023/06/05 04:14:10;;;;;;;12.57;9.33;;;;;;;13.33;97.24;98021.84;6062163;29;20236;-50
2023/06/05 04:17:14;;;;;;;9.07;8.17;;;;;;;13.24;97.11;98009.16;6054166;29;20236;-51
2023/06/05 04:20:17;;;;;;;10.70;9.33;;;;;;;13.37;97.53;98028.31;6066519;29;20232;-53
2023/06/05 04:23:22;;;;;;;10.63;9.53;;;;;;;13.32;97.23;98012.19;6054130;29;20761;-48
2023/06/05 04:26:26;;;;;;;8.33;7.40;;;;;;;13.40;97.51;98016.31;6050770;29;20355;-50
2023/06/05 04:29:28;;;;;;;9.10;8.20;;;;;;;13.44;97.66;98020.06;6051551;29;20244;-50
2023/06/05 04:32:34;;;;;;;9.73;8.23;;;;;;;13.47;97.66;98008.88;6052985;29;20277;-52
2023/06/05 04:35:36;;;;;;;7.83;7.10;;;;;;;13.49;97.70;98006.75;6067657;29;20233;-52
2023/06/05 04:38:39;;;;;;;8.07;7.27;;;;;;;13.54;97.76;98019.38;6051279;29;20232;-51
2023/06/05 04:41:44;;;;;;;8.40;7.60;;;;;;;13.58;97.34;98015.13;6062813;29;20243;-52
2023/06/05 04:45:03;;;;;;;9.37;7.93;;;;;;;13.62;97.59;98016.25;6060262;29;20612;-49
2023/06/05 04:48:09;;;;;;;7.87;6.73;;;;;;;13.61;97.47;98006.63;6047319;29;20225;-52
2023/06/05 04:51:11;;;;;;;8.53;7.63;;;;;;;13.70;97.42;98017.69;6069038;29;20221;-50
2023/06/05 04:54:14;;;;;;;7.70;6.67;;;;;;;13.74;97.40;98011.53;6054136;29;20748;-51
2023/06/05 04:57:18;;;;;;;8.60;7.70;;;;;;;13.71;97.31;97998.69;6048484;29;20217;-51
2023/06/05 05:00:21;;;;;;;7.80;6.93;;;;;;;13.53;97.19;97969.59;6058871;29;20423;-53
2023/06/05 05:03:25;;;;;;;6.57;5.93;;;;;;;13.81;97.19;98009.47;6071755;29;20834;-52
2023/06/05 05:06:27;;;;;;;7.17;6.50;;;;;;;13.88;97.21;98001.22;6056679;29;20229;-49
2023/06/05 05:09:31;;;;;;;8.40;7.60;;;;;;;13.91;97.19;98003.41;6057954;29;20247;-50
2023/06/05 05:12:36;;;;;;;8.47;6.53;;;;;;;13.80;96.79;97978.41;6052049;29;20236;-53
2023/06/05 05:15:39;;;;;;;8.97;7.77;;;;;;;13.82;97.11;97972.78;6049051;29;20229;-51
2023/06/05 05:18:43;;;;;;;9.17;8.27;;;;;;;13.92;96.67;97987.06;6050603;29;20232;-51
2023/06/05 05:21:47;;;;;;;9.17;7.80;;;;;;;13.48;96.57;97911.47;6060150;29;20237;-49
2023/06/05 05:24:49;;;;;;;7.40;6.47;;;;;;;14.10;96.48;98010.00;6047855;29;20237;-48
2023/06/05 05:27:52;;;;;;;6.60;5.63;;;;;;;14.11;96.31;98008.13;6048469;29;20240;-49
2023/06/05 05:30:56;;;;;;;7.50;6.70;;;;;;;14.14;96.46;98013.78;6057620;29;20231;-51
2023/06/05 05:34:00;;;;;;;6.73;6.03;;;;;;;14.18;96.45;98019.41;6064453;29;20240;-51
2023/06/05 05:37:03;;;;;;;7.27;6.57;;;;;;;14.20;96.09;98019.97;6049337;29;20369;-50
2023/06/05 05:40:07;;;;;;;9.23;7.03;;;;;;;14.23;96.09;98021.31;6065988;29;20256;-51
2023/06/05 05:43:10;;;;;;;8.87;7.10;;;;;;;14.24;95.79;98026.44;6056234;29;20347;-51
2023/06/05 05:46:13;;;;;;;8.37;7.53;;;;;;;14.00;95.68;97985.81;6062504;29;20312;-50
2023/06/05 05:49:16;;;;;;;10.53;7.17;;;;;;;14.11;95.80;97997.41;6050486;29;20241;-48
2023/06/05 05:52:20;;;;;;;8.50;7.33;;;;;;;14.32;95.91;98023.28;6053237;29;20241;-50
2023/06/05 05:55:22;;;;;;;7.87;6.80;;;;;;;14.14;95.42;97997.69;6048749;29;20788;-48
2023/06/05 05:58:24;;;;;;;8.40;6.50;;;;;;;14.28;95.21;98013.31;6050773;29;20240;-52
2023/06/05 06:01:27;;;;;;;7.10;6.40;;;;;;;14.41;94.97;98035.13;6050179;29;20247;-50
2023/06/05 06:04:30;;;;;;;6.90;6.20;;;;;;;14.45;94.82;98038.09;6051115;29;20393;-52
2023/06/05 06:07:33;;;;;;;8.67;6.90;;;;;;;14.26;92.83;98016.25;6048404;29;20241;-51
2023/06/05 06:10:36;;;;;;;7.33;5.90;;;;;;;14.20;93.10;97996.66;6050699;29;20248;-52
2023/06/05 06:13:38;;;;;;;6.70;5.03;;;;;;;14.41;93.08;98023.59;6053738;29;20792;-50
2023/06/05 06:16:43;;;;;;;8.00;5.40;;;;;;;14.44;92.77;98020.41;6047431;29;20233;-50
2023/06/05 06:19:47;;;;;;;5.70;5.00;;;;;;;14.48;92.57;98018.84;6049415;29;20237;-51
2023/06/05 06:22:50;;;;;;;5.83;5.23;;;;;;;14.55;92.65;98022.13;6048907;29;20233;-52
2023/06/05 06:25:53;;;;;;;8.90;5.70;;;;;;;14.58;92.23;98029.66;6050072;29;20724;-49
2023/06/05 06:28:57;;;;;;;6.17;5.57;;;;;;;14.62;91.91;98036.09;6054171;29;20243;-52
2023/06/05 06:31:59;;;;;;;6.10;5.50;;;;;;;14.65;91.97;98032.91;6055628;29;20239;-53
2023/06/05 06:35:02;;;;;;;5.60;5.10;;;;;;;14.73;91.57;98039.66;6054035;29;20264;-50
2023/06/05 06:38:05;;;;;;;6.10;5.03;;;;;;;14.59;90.98;98017.84;6053699;29;20237;-52
2023/06/05 06:41:07;;;;;;;6.23;5.23;;;;;;;14.31;90.95;97951.97;6055865;29;20308;-49
2023/06/05 06:44:10;;;;;;;7.60;6.20;;;;;;;14.45;90.05;97979.94;6064589;29;20240;-49
2023/06/05 06:47:12;;;;;;;7.20;6.13;;;;;;;14.81;90.44;98038.34;6052823;29;20594;-48
2023/06/05 06:50:15;;;;;;;5.97;5.37;;;;;;;14.86;90.19;98033.81;6068574;29;20236;-48
2023/06/05 06:53:18;;;;;;;6.27;5.67;;;;;;;14.94;90.44;98029.84;6057994;29;20233;-52
2023/06/05 06:56:21;;;;;;;6.60;5.90;;;;;;;15.01;90.17;98030.41;6056103;29;20235;-50
2023/06/05 06:59:23;;;;;;;6.53;5.37;;;;;;;15.11;89.82;98038.50;6053053;29;20276;-49
2023/06/05 07:02:26;;;;;;;5.80;5.20;;;;;;;15.13;89.36;98020.28;6070106;29;20229;-52
2023/06/05 07:05:28;;;;;;;6.60;5.57;;;;;;;15.22;88.72;98015.19;6061141;29;20239;-48
2023/06/05 07:08:31;;;;;;;8.63;6.33;;;;;;;15.33;88.78;98005.31;6060140;29;20380;-50
2023/06/05 07:11:33;;;;;;;6.37;5.13;;;;;;;15.48;87.96;98026.81;6059376;29;20251;-49
2023/06/05 07:14:37;;;;;;;9.37;6.20;;;;;;;15.42;84.66;98020.63;6054227;29;20248;-50
2023/06/05 07:17:41;;;;;;;5.67;5.13;;;;;;;15.51;85.40;98026.28;6059421;29;20240;-51
2023/06/05 07:20:43;;;;;;;5.40;4.80;;;;;;;15.44;85.37;98009.63;6057442;29;20233;-52
2023/06/05 07:23:53;;;;;;;5.87;4.60;;;;;;;15.75;85.58;98032.00;6059805;29;20243;-51
2023/06/05 07:26:57;;;;;;;6.07;5.27;;;;;;;15.72;85.16;98011.88;6054585;29;20354;-51
2023/06/05 07:30:00;;;;;;;8.57;5.80;;;;;;;15.92;82.20;98032.56;6052813;29;20660;-51
2023/06/05 07:33:03;;;;;;;6.37;5.77;;;;;;;15.80;82.79;98033.88;6052252;29;20362;-52
2023/06/05 07:36:11;;;;;;;5.50;5.00;;;;;;;15.85;83.33;98036.56;6054151;29;20824;-49
2023/06/05 07:39:14;;;;;;;5.57;5.07;;;;;;;15.87;83.51;98029.88;6054964;29;20285;-52
2023/06/05 07:42:16;;;;;;;6.50;5.10;;;;;;;15.93;84.16;98030.69;6051774;29;20252;-49
2023/06/05 07:45:19;;;;;;;6.63;5.43;;;;;;;15.96;84.16;98030.97;6051190;29;20236;-51
2023/06/05 07:48:21;;;;;;;6.47;4.80;;;;;;;15.87;84.77;98010.28;6054158;29;20233;-51
2023/06/05 07:51:25;;;;;;;7.37;6.00;;;;;;;15.99;83.92;98027.72;6053005;29;20705;-52
2023/06/05 07:54:27;;;;;;;7.63;6.50;;;;;;;15.98;83.78;98036.88;6057404;29;20590;-49
2023/06/05 07:57:30;;;;;;;6.40;5.37;;;;;;;15.86;84.01;98019.38;6052338;29;20761;-50
2023/06/05 08:00:33;;;;;;;8.50;6.43;;;;;;;15.93;82.84;98036.88;6053513;29;20231;-52
2023/06/05 08:03:36;;;;;;;6.77;5.43;;;;;;;15.95;83.50;98040.06;6053906;29;20240;-53
2023/06/05 08:06:40;;;;;;;6.33;5.73;;;;;;;16.02;83.71;98034.47;6052870;29;20257;-52
2023/06/05 08:09:42;;;;;;;6.07;5.27;;;;;;;16.03;82.85;98033.38;6051569;29;20236;-49
2023/06/05 08:12:44;;;;;;;7.10;6.20;;;;;;;16.13;82.07;98041.44;6051901;29;20271;-53
2023/06/05 08:15:47;;;;;;;6.30;5.53;;;;;;;16.27;82.26;98032.84;6053790;29;20236;-52
2023/06/05 08:18:50;;;;;;;5.70;4.70;;;;;;;16.35;80.90;98040.34;6054171;29;20264;-53
2023/06/05 08:21:59;;;;;;;6.17;5.20;;;;;;;16.41;81.09;98029.34;6053380;29;20232;-52
2023/06/05 08:25:04;;;;;;;5.70;4.80;;;;;;;16.60;80.78;98036.81;6052467;29;20245;-52
2023/06/05 08:28:06;;;;;;;4.93;4.33;;;;;;;16.65;80.18;98032.25;6052252;29;20247;-51
2023/06/05 08:31:10;;;;;;;6.63;4.70;;;;;;;16.71;80.04;98041.97;6050636;29;20264;-51
2023/06/05 08:34:13;;;;;;;7.17;5.20;;;;;;;16.42;78.84;98009.44;6052516;29;20670;-52
2023/06/05 08:37:16;;;;;;;5.10;4.60;;;;;;;16.51;79.52;98021.25;6059903;29;20249;-49
2023/06/05 08:40:19;;;;;;;6.20;4.20;;;;;;;16.70;79.56;98037.63;6055995;29;20736;-49
2023/06/05 08:43:21;;;;;;;6.07;5.00;;;;;;;16.77;79.34;98038.19;6075344;29;20312;-52
2023/06/05 08:46:30;;;;;;;5.03;4.53;;;;;;;16.89;79.55;98039.75;6051741;29;20233;-52
2023/06/05 08:49:36;;;;;;;5.63;4.37;;;;;;;16.91;79.19;98016.88;6052719;29;20253;-53
2023/06/05 08:52:42;;;;;;;6.53;4.10;;;;;;;17.21;78.29;98048.25;6054276;29;20232;-52
2023/06/05 08:55:47;;;;;;;5.27;4.77;;;;;;;17.03;78.20;98030.81;6051532;29;20252;-52
2023/06/05 08:58:50;;;;;;;7.33;5.03;;;;;;;17.15;77.84;98049.38;6052493;29;20295;-52
2023/06/05 09:01:55;;;;;;;5.13;4.63;;;;;;;17.23;78.23;98046.09;6053576;29;20240;-51
2023/06/05 09:05:00;;;;;;;5.20;4.70;;;;;;;17.20;77.87;98043.97;6053198;29;20236;-49
2023/06/05 09:08:03;;;;;;;5.37;4.87;;;;;;;17.27;76.83;98046.34;6050138;29;20271;-53
2023/06/05 09:11:27;;;;;;;5.83;5.20;;;;;;;17.42;77.61;98048.16;6051019;29;20290;-52
2023/06/05 09:14:33;;;;;;;8.23;4.77;;;;;;;17.48;76.84;98042.47;6050854;29;20257;-51
2023/06/05 09:17:36;;;;;;;5.77;5.17;;;;;;;17.25;74.87;98021.59;6052037;29;20241;-51
2023/06/05 09:20:40;;;;;;;6.47;4.80;;;;;;;17.38;75.75;98041.72;6051700;29;20635;-50
2023/06/05 09:23:43;;;;;;;5.90;4.40;;;;;;;17.40;76.64;98039.56;6055881;29;20323;-52
2023/06/05 09:27:03;;;;;;;6.40;4.90;;;;;;;17.50;75.86;98031.44;6053353;29;20249;-51
2023/06/05 09:30:07;;;;;;;5.60;5.00;;;;;;;17.55;75.10;98031.41;6050967;29;20247;-52
2023/06/05 09:33:09;;;;;;;7.67;5.67;;;;;;;17.75;75.57;98034.00;6050593;29;20235;-53
2023/06/05 09:36:13;;;;;;;5.60;5.00;;;;;;;17.87;74.81;98030.16;6050351;29;20249;-50
2023/06/05 09:39:17;;;;;;;6.37;4.53;;;;;;;17.89;74.57;98020.72;6052060;29;20276;-49
2023/06/05 09:42:32;;;;;;;5.03;4.53;;;;;;;18.05;72.39;98007.91;6069630;29;20232;-51
2023/06/05 09:45:42;;;;;;;5.80;4.70;;;;;;;18.21;73.26;98027.47;6062986;29;20248;-52
2023/06/05 09:48:57;;;;;;;5.00;4.20;;;;;;;18.05;73.30;97994.44;6048967;29;20236;-51
2023/06/05 09:52:01;;;;;;;5.63;3.83;;;;;;;18.33;73.67;98027.13;6055057;29;20602;-51
2023/06/05 09:55:06;;;;;;;6.63;5.07;;;;;;;18.18;73.39;98009.16;6053008;29;20236;-52
2023/06/05 09:58:13;;;;;;;4.60;4.10;;;;;;;18.21;73.81;98022.88;6051023;29;20240;-51
2023/06/05 10:01:23;;;;;;;5.77;4.50;;;;;;;18.24;74.46;98022.31;6049605;29;20343;-52
2023/06/05 10:04:28;;;;;;;5.23;4.73;;;;;;;18.28;73.72;98023.38;6050511;29;20241;-50
2023/06/05 10:07:32;;;;;;;8.87;4.70;;;;;;;18.37;73.92;98020.03;6049339;29;20240;-51
2023/06/05 10:10:36;;;;;;;6.13;4.93;;;;;;;18.45;72.77;98012.13;6048744;29;20316;-51
2023/06/05 10:13:39;;;;;;;6.00;4.23;;;;;;;18.49;73.38;97999.69;6051357;29;20233;-52
2023/06/05 10:16:42;;;;;;;4.63;4.23;;;;;;;18.61;73.36;98007.38;6051095;29;20233;-53
2023/06/05 10:19:45;;;;;;;4.37;3.97;;;;;;;18.59;73.34;98006.88;6048235;29;20816;-50
2023/06/05 10:22:50;;;;;;;5.37;4.10;;;;;;;18.54;72.47;98001.53;6063845;29;20649;-52
2023/06/05 10:25:55;;;;;;;4.90;4.13;;;;;;;18.57;73.27;98003.69;6053515;29;20240;-53
2023/06/05 10:29:22;;;;;;;5.27;3.83;;;;;;;18.55;73.00;98009.34;6063749;29;20315;-52
2023/06/05 10:32:31;;;;;;;4.03;3.63;;;;;;;18.48;73.89;98005.38;6050818;29;20241;-53
2023/06/05 10:36:02;;;;;;;7.57;3.93;;;;;;;18.41;73.14;98007.59;6047613;29;20721;-51
2023/06/05 10:39:04;;;;;;;3.63;3.33;;;;;;;18.38;72.95;98005.47;6055737;29;20239;-52
2023/06/05 10:42:07;;;;;;;4.97;3.70;;;;;;;18.37;73.26;98001.16;6062645;29;20244;-50
2023/06/05 10:45:10;;;;;;;5.10;3.40;;;;;;;18.21;73.46;97987.81;6047241;29;20724;-52
2023/06/05 10:48:12;;;;;;;3.47;3.17;;;;;;;18.19;74.48;97981.09;6051228;29;20229;-51
2023/06/05 10:51:45;;;;;;;3.50;3.20;;;;;;;18.25;74.08;98006.94;6050841;29;20680;-51
2023/06/05 10:54:47;;;;;;;5.33;3.73;;;;;;;18.18;71.97;98004.56;6054884;29;20264;-52
2023/06/05 10:58:03;;;;;;;5.07;4.07;;;;;;;18.21;70.43;98003.19;6050805;29;20696;-52
2023/06/05 11:01:21;;;;;;;4.60;3.60;;;;;;;18.08;70.99;97961.53;6063075;29;20237;-50
2023/06/05 11:04:24;;;;;;;6.10;4.03;;;;;;;18.42;68.94;98006.50;6053987;29;20316;-51
2023/06/05 11:07:29;;;;;;;4.80;3.67;;;;;;;18.48;70.85;98003.50;6051016;29;20627;-49
2023/06/05 11:10:32;;;;;;;4.87;4.10;;;;;;;18.44;69.23;97971.97;6046737;29;20245;-52
2023/06/05 11:13:57;;;;;;;5.13;4.13;;;;;;;18.59;68.35;98001.50;6055462;29;20724;-52
2023/06/05 11:17:19;;;;;;;4.23;3.60;;;;;;;18.60;68.95;98002.28;6055186;29;20244;-51
2023/06/05 11:20:25;;;;;;;5.27;4.53;;;;;;;18.52;66.53;97995.59;6059220;29;20781;-51
2023/06/05 11:23:29;;;;;;;5.87;3.43;;;;;;;18.56;67.53;98002.03;6055372;29;20710;-50
2023/06/05 11:26:44;;;;;;;5.30;4.13;;;;;;;18.59;69.70;98006.09;6052133;29;20248;-53
2023/06/05 11:29:48;;;;;;;3.80;3.30;;;;;;;18.47;70.45;97988.41;6055974;29;20272;-51
2023/06/05 11:32:52;;;;;;;4.57;3.30;;;;;;;18.62;70.80;98006.31;6054129;29;20233;-49
2023/06/05 11:36:01;;;;;;;3.93;3.50;;;;;;;18.51;71.10;97978.63;6057660;29;20237;-53
2023/06/05 11:39:04;;;;;;;3.67;3.17;;;;;;;18.62;70.49;98000.94;6054710;29;20750;-52
2023/06/05 11:42:07;;;;;;;3.53;3.23;;;;;;;18.58;71.33;98007.19;6060222;29;20205;-53
2023/06/05 11:45:11;;;;;;;3.43;3.13;;;;;;;18.53;72.86;98006.13;6057758;29;20212;-52
2023/06/05 11:48:14;;;;;;;3.00;2.70;;;;;;;18.36;73.11;97983.38;6054035;29;20286;-52
2023/06/05 11:51:17;;;;;;;3.90;3.40;;;;;;;18.41;74.66;97989.50;6055551;29;20263;-52
2023/06/05 11:54:45;;;;;;;4.83;3.60;;;;;;;18.48;72.73;97997.28;6057820;29;20236;-51
2023/06/05 11:57:49;;;;;;;4.40;2.90;;;;;;;18.48;70.93;97975.72;6053955;29;20245;-52
2023/06/05 12:01:04;;;;;;;3.17;2.87;;;;;;;18.70;70.74;97988.72;6052080;29;20320;-52
2023/06/05 12:04:07;;;;;;;4.03;3.07;;;;;;;18.81;69.70;97992.91;6056508;29;20437;-52
2023/06/05 12:07:12;;;;;;;3.77;2.70;;;;;;;18.72;70.19;97971.16;6052764;29;20581;-52
2023/06/05 12:10:14;;;;;;;3.37;3.07;;;;;;;18.89;70.65;97988.78;6053926;29;20289;-53
2023/06/05 12:13:17;;;;;;;5.90;3.23;;;;;;;18.89;71.16;97981.47;6055238;29;20236;-52
2023/06/05 12:16:30;;;;;;;3.77;2.90;;;;;;;18.91;72.80;97978.47;6055271;29;20240;-52
2023/06/05 12:19:34;;;;;;;6.03;3.60;;;;;;;18.96;70.66;97978.41;6054672;29;20237;-52
2023/06/05 12:22:36;;;;;;;4.67;2.83;;;;;;;18.99;71.01;97978.66;6053345;29;20243;-53
2023/06/05 12:25:41;;;;;;;4.13;3.03;;;;;;;19.02;70.61;97983.50;6050680;29;20741;-53
2023/06/05 12:28:46;;;;;;;2.63;2.43;;;;;;;19.01;70.98;97970.25;6052210;29;20239;-53
2023/06/05 12:31:48;;;;;;;3.00;2.60;;;;;;;19.00;71.76;97971.34;6051760;29;20377;-51
2023/06/05 12:34:52;;;;;;;4.33;3.30;;;;;;;18.97;71.78;97967.34;6055166;29;20479;-50
2023/06/05 12:38:01;;;;;;;3.67;2.77;;;;;;;18.90;73.26;97963.38;6051347;29;20243;-50
2023/06/05 12:41:06;;;;;;;4.40;3.10;;;;;;;18.78;72.28;97980.00;6050283;29;20236;-53
2023/06/05 12:44:08;;;;;;;3.13;2.77;;;;;;;18.75;73.02;97980.56;6052435;29;20522;-53
2023/06/05 12:47:11;;;;;;;3.30;2.60;;;;;;;18.75;72.94;97978.66;6050612;29;20331;-52
2023/06/05 12:50:13;;;;;;;5.20;3.13;;;;;;;18.71;73.61;97966.81;6050240;29;20880;-51
2023/06/05 12:53:15;;;;;;;2.80;2.60;;;;;;;18.63;74.76;97972.03;6055147;29;20237;-53
2023/06/05 12:56:18;;;;;;;6.23;3.10;;;;;;;18.40;75.06;97954.75;6051237;29;20232;-53
2023/06/05 12:59:21;;;;;;;4.17;2.43;;;;;;;18.46;75.64;97964.38;6051534;29;20237;-50
2023/06/05 13:02:24;;;;;;;2.80;2.60;;;;;;;18.42;75.85;97974.13;6052186;29;20240;-49
2023/06/05 13:05:26;;;;;;;3.60;3.00;;;;;;;18.35;76.69;97961.00;6049636;29;20614;-51
2023/06/05 13:08:28;;;;;;;3.93;2.97;;;;;;;18.30;76.94;97961.03;6052155;29;20233;-52
2023/06/05 13:11:31;;;;;;;3.40;3.10;;;;;;;18.32;76.99;97956.16;6051575;29;20339;-50
2023/06/05 13:14:34;;;;;;;4.17;3.30;;;;;;;18.39;76.13;97951.25;6052923;29;20717;-50
2023/06/05 13:17:37;;;;;;;4.87;2.90;;;;;;;18.53;75.75;97946.78;6049903;29;20255;-51
2023/06/05 13:20:40;;;;;;;3.90;3.00;;;;;;;18.59;75.61;97947.53;6065504;29;20283;-49
2023/06/05 13:23:43;;;;;;;4.83;2.90;;;;;;;18.51;76.08;97940.84;6051601;29;20260;-51
2023/06/05 13:26:46;;;;;;;3.37;2.50;;;;;;;18.63;75.92;97947.75;6049204;29;20752;-52
2023/06/05 13:29:49;;;;;;;5.83;3.63;;;;;;;18.54;74.21;97944.88;6052753;29;20241;-53
2023/06/05 13:32:53;;;;;;;7.30;4.63;;;;;;;18.50;74.27;97941.94;6050727;29;20229;-51
2023/06/05 13:35:57;;;;;;;4.67;3.50;;;;;;;18.42;74.86;97941.75;6050337;29;20736;-51
2023/06/05 13:38:59;;;;;;;4.57;3.10;;;;;;;18.38;76.25;97943.44;6053111;29;20718;-50
2023/06/05 13:42:02;;;;;;;6.60;3.70;;;;;;;18.36;76.22;97937.50;6052823;29;20225;-52
2023/06/05 13:45:05;;;;;;;3.73;3.30;;;;;;;18.30;76.82;97940.25;6051854;29;20241;-53
2023/06/05 13:48:09;;;;;;;3.50;3.00;;;;;;;18.27;77.11;97938.16;6066114;29;20209;-52
2023/06/05 13:51:11;;;;;;;7.67;3.20;;;;;;;18.21;78.10;97936.56;6053338;29;20252;-50
2023/06/05 13:54:14;;;;;;;3.57;3.27;;;;;;;18.14;78.30;97930.72;6056991;29;20772;-52
2023/06/05 13:57:19;;;;;;;4.03;3.07;;;;;;;18.11;78.55;97939.38;6051415;29;20245;-52
2023/06/05 14:00:23;;;;;;;5.07;3.20;;;;;;;18.04;79.01;97936.22;6050717;29;21289;-51
2023/06/05 14:03:27;;;;;;;3.93;3.40;;;;;;;17.98;79.30;97934.63;6051077;29;20252;-52
2023/06/05 14:06:30;;;;;;;4.13;3.73;;;;;;;17.90;79.46;97927.19;6052343;29;20239;-52
2023/06/05 14:09:32;;;;;;;4.50;3.80;;;;;;;17.89;80.35;97930.97;6049186;29;20236;-53
2023/06/05 14:12:35;;;;;;;4.03;3.57;;;;;;;17.88;80.58;97932.84;6052797;29;20228;-50
2023/06/05 14:15:38;;;;;;;3.80;3.50;;;;;;;17.88;80.53;97929.34;6050428;29;20248;-53
2023/06/05 14:18:40;;;;;;;4.20;3.80;;;;;;;17.84;81.07;97926.41;6050939;29;20236;-51
2023/06/05 14:21:43;;;;;;;3.23;2.93;;;;;;;17.78;81.02;97928.34;6048938;29;20240;-50
2023/06/05 14:24:46;;;;;;;3.90;3.60;;;;;;;17.71;82.01;97919.75;6052198;29;20368;-51
2023/06/05 14:27:49;;;;;;;4.30;3.40;;;;;;;17.67;81.66;97921.38;6049337;29;20709;-49
2023/06/05 14:30:52;;;;;;;4.33;3.97;;;;;;;17.59;82.41;97930.09;6050868;29;20232;-49
2023/06/05 14:33:54;;;;;;;4.93;3.80;;;;;;;17.39;83.02;97924.81;6049169;29;20283;-51